sensor_id;sensor_type;location;lat;lon;timestamp;P1;durP1;ratioP1;P2;durP2;ratioP2
568;SDS011;269;48.884;9.192;2022-09-16T00:01:02;6.23;;;5.73;;
568;SDS011;269;48.884;9.192;2022-09-16T00:03:36;5.90;;;5.50;;
568;SDS011;269;48.884;9.192;2022-09-16T00:06:03;6.60;;;6.07;;
568;SDS011;269;48.884;9.192;2022-09-16T00:08:30;6.30;;;5.70;;
568;SDS011;269;48.884;9.192;2022-09-16T00:10:58;6.43;;;5.93;;
568;SDS011;269;48.884;9.192;2022-09-16T00:13:26;6.77;;;5.80;;
568;SDS011;269;48.884;9.192;2022-09-16T00:15:53;7.67;;;5.83;;
568;SDS011;269;48.884;9.192;2022-09-16T00:18:22;6.67;;;6.00;;
568;SDS011;269;48.884;9.192;2022-09-16T00:20:50;6.30;;;5.70;;
568;SDS011;269;48.884;9.192;2022-09-16T00:23:19;6.90;;;6.00;;
568;SDS011;269;48.884;9.192;2022-09-16T00:25:49;5.83;;;5.33;;
568;SDS011;269;48.884;9.192;2022-09-16T00:28:18;6.23;;;5.60;;
568;SDS011;269;48.884;9.192;2022-09-16T00:30:46;5.50;;;5.10;;
568;SDS011;269;48.884;9.192;2022-09-16T00:33:13;6.10;;;5.63;;
568;SDS011;269;48.884;9.192;2022-09-16T00:35:41;5.57;;;4.97;;
568;SDS011;269;48.884;9.192;2022-09-16T00:38:08;5.80;;;5.30;;
568;SDS011;269;48.884;9.192;2022-09-16T00:40:42;6.30;;;5.80;;
568;SDS011;269;48.884;9.192;2022-09-16T00:43:11;5.07;;;4.60;;
568;SDS011;269;48.884;9.192;2022-09-16T00:45:38;5.97;;;5.50;;
568;SDS011;269;48.884;9.192;2022-09-16T00:48:07;5.70;;;5.20;;
568;SDS011;269;48.884;9.192;2022-09-16T00:50:42;5.27;;;4.83;;
568;SDS011;269;48.884;9.192;2022-09-16T00:53:15;5.17;;;4.53;;
568;SDS011;269;48.884;9.192;2022-09-16T00:55:45;5.73;;;5.07;;
568;SDS011;269;48.884;9.192;2022-09-16T00:58:14;6.60;;;6.00;;
568;SDS011;269;48.884;9.192;2022-09-16T01:00:49;6.20;;;5.70;;
568;SDS011;269;48.884;9.192;2022-09-16T01:03:16;5.97;;;5.47;;
568;SDS011;269;48.884;9.192;2022-09-16T01:05:46;6.23;;;5.63;;
568;SDS011;269;48.884;9.192;2022-09-16T01:08:14;7.53;;;5.93;;
568;SDS011;269;48.884;9.192;2022-09-16T01:10:42;5.93;;;5.43;;
568;SDS011;269;48.884;9.192;2022-09-16T01:13:10;6.40;;;5.57;;
568;SDS011;269;48.884;9.192;2022-09-16T01:15:41;6.00;;;5.40;;
568;SDS011;269;48.884;9.192;2022-09-16T01:18:13;6.13;;;5.67;;
568;SDS011;269;48.884;9.192;2022-09-16T01:26:41;6.97;;;6.27;;
568;SDS011;269;48.884;9.192;2022-09-16T01:32:44;7.33;;;6.63;;
568;SDS011;269;48.884;9.192;2022-09-16T01:35:39;5.83;;;5.27;;
568;SDS011;269;48.884;9.192;2022-09-16T01:38:20;6.00;;;5.50;;
568;SDS011;269;48.884;9.192;2022-09-16T01:40:56;6.50;;;6.00;;
568;SDS011;269;48.884;9.192;2022-09-16T01:43:29;5.93;;;5.43;;
568;SDS011;269;48.884;9.192;2022-09-16T01:46:08;5.63;;;5.13;;
568;SDS011;269;48.884;9.192;2022-09-16T01:48:47;6.30;;;5.73;;
568;SDS011;269;48.884;9.192;2022-09-16T01:51:21;6.90;;;4.87;;
568;SDS011;269;48.884;9.192;2022-09-16T01:53:53;5.87;;;5.47;;
568;SDS011;269;48.884;9.192;2022-09-16T01:56:29;4.90;;;4.60;;
568;SDS011;269;48.884;9.192;2022-09-16T01:59:03;5.70;;;4.80;;
568;SDS011;269;48.884;9.192;2022-09-16T02:01:35;5.50;;;5.00;;
568;SDS011;269;48.884;9.192;2022-09-16T02:04:10;5.20;;;4.70;;
568;SDS011;269;48.884;9.192;2022-09-16T02:06:41;5.37;;;4.87;;
568;SDS011;269;48.884;9.192;2022-09-16T02:09:12;5.30;;;4.83;;
568;SDS011;269;48.884;9.192;2022-09-16T02:11:43;6.07;;;4.90;;
568;SDS011;269;48.884;9.192;2022-09-16T02:14:15;6.23;;;4.67;;
568;SDS011;269;48.884;9.192;2022-09-16T02:16:46;5.97;;;5.10;;
568;SDS011;269;48.884;9.192;2022-09-16T02:19:21;4.93;;;4.43;;
568;SDS011;269;48.884;9.192;2022-09-16T02:21:52;4.73;;;4.33;;
568;SDS011;269;48.884;9.192;2022-09-16T02:24:21;5.50;;;4.20;;
568;SDS011;269;48.884;9.192;2022-09-16T02:26:51;4.87;;;4.47;;
568;SDS011;269;48.884;9.192;2022-09-16T02:29:23;5.40;;;4.90;;
568;SDS011;269;48.884;9.192;2022-09-16T02:31:52;8.87;;;5.40;;
568;SDS011;269;48.884;9.192;2022-09-16T02:34:26;4.77;;;4.37;;
568;SDS011;269;48.884;9.192;2022-09-16T02:37:00;6.87;;;4.80;;
568;SDS011;269;48.884;9.192;2022-09-16T02:39:33;5.47;;;4.10;;
568;SDS011;269;48.884;9.192;2022-09-16T02:42:04;4.40;;;3.97;;
568;SDS011;269;48.884;9.192;2022-09-16T02:44:32;4.20;;;3.80;;
568;SDS011;269;48.884;9.192;2022-09-16T02:47:00;4.80;;;3.40;;
568;SDS011;269;48.884;9.192;2022-09-16T02:49:37;4.27;;;3.73;;
568;SDS011;269;48.884;9.192;2022-09-16T02:52:11;4.90;;;4.30;;
568;SDS011;269;48.884;9.192;2022-09-16T02:54:45;5.40;;;4.00;;
568;SDS011;269;48.884;9.192;2022-09-16T02:57:18;5.13;;;3.70;;
568;SDS011;269;48.884;9.192;2022-09-16T02:59:46;5.40;;;3.70;;
568;SDS011;269;48.884;9.192;2022-09-16T03:02:13;4.77;;;4.27;;
568;SDS011;269;48.884;9.192;2022-09-16T03:04:41;5.13;;;3.60;;
568;SDS011;269;48.884;9.192;2022-09-16T03:07:09;3.47;;;3.17;;
568;SDS011;269;48.884;9.192;2022-09-16T03:09:37;3.70;;;3.42;;
568;SDS011;269;48.884;9.192;2022-09-16T03:12:15;4.40;;;3.70;;
568;SDS011;269;48.884;9.192;2022-09-16T03:17:50;4.57;;;3.57;;
568;SDS011;269;48.884;9.192;2022-09-16T03:20:32;3.60;;;3.30;;
568;SDS011;269;48.884;9.192;2022-09-16T03:23:08;4.10;;;3.70;;
568;SDS011;269;48.884;9.192;2022-09-16T03:25:45;4.23;;;3.73;;
568;SDS011;269;48.884;9.192;2022-09-16T03:28:22;4.10;;;3.40;;
568;SDS011;269;48.884;9.192;2022-09-16T03:30:52;4.80;;;4.13;;
568;SDS011;269;48.884;9.192;2022-09-16T03:33:30;5.20;;;4.33;;
568;SDS011;269;48.884;9.192;2022-09-16T03:36:03;6.57;;;5.00;;
568;SDS011;269;48.884;9.192;2022-09-16T03:38:33;6.37;;;4.87;;
568;SDS011;269;48.884;9.192;2022-09-16T03:41:01;6.77;;;4.43;;
568;SDS011;269;48.884;9.192;2022-09-16T03:43:31;4.73;;;4.33;;
568;SDS011;269;48.884;9.192;2022-09-16T03:45:58;4.73;;;4.33;;
568;SDS011;269;48.884;9.192;2022-09-16T03:48:26;4.70;;;4.27;;
568;SDS011;269;48.884;9.192;2022-09-16T03:50:53;6.43;;;4.13;;
568;SDS011;269;48.884;9.192;2022-09-16T03:53:21;4.67;;;4.30;;
568;SDS011;269;48.884;9.192;2022-09-16T03:55:48;5.50;;;4.80;;
568;SDS011;269;48.884;9.192;2022-09-16T03:58:15;5.10;;;4.37;;
568;SDS011;269;48.884;9.192;2022-09-16T04:00:42;4.57;;;4.17;;
568;SDS011;269;48.884;9.192;2022-09-16T04:03:13;4.73;;;4.17;;
568;SDS011;269;48.884;9.192;2022-09-16T04:05:40;5.33;;;4.17;;
568;SDS011;269;48.884;9.192;2022-09-16T04:08:07;4.57;;;4.07;;
568;SDS011;269;48.884;9.192;2022-09-16T04:10:36;5.00;;;3.80;;
568;SDS011;269;48.884;9.192;2022-09-16T04:13:03;3.97;;;3.53;;
568;SDS011;269;48.884;9.192;2022-09-16T04:15:30;4.00;;;3.43;;
568;SDS011;269;48.884;9.192;2022-09-16T04:17:58;4.00;;;3.40;;
568;SDS011;269;48.884;9.192;2022-09-16T04:20:25;4.20;;;3.07;;
568;SDS011;269;48.884;9.192;2022-09-16T04:22:52;4.30;;;3.23;;
568;SDS011;269;48.884;9.192;2022-09-16T04:25:19;3.80;;;3.40;;
568;SDS011;269;48.884;9.192;2022-09-16T04:27:48;3.80;;;3.50;;
568;SDS011;269;48.884;9.192;2022-09-16T04:30:15;4.40;;;3.53;;
568;SDS011;269;48.884;9.192;2022-09-16T04:32:43;4.40;;;3.67;;
568;SDS011;269;48.884;9.192;2022-09-16T04:35:10;3.90;;;3.33;;
568;SDS011;269;48.884;9.192;2022-09-16T04:37:37;4.60;;;3.37;;
568;SDS011;269;48.884;9.192;2022-09-16T04:40:04;5.13;;;3.73;;
568;SDS011;269;48.884;9.192;2022-09-16T04:42:32;4.70;;;4.00;;
568;SDS011;269;48.884;9.192;2022-09-16T04:45:00;5.30;;;4.33;;
568;SDS011;269;48.884;9.192;2022-09-16T04:47:27;12.67;;;5.60;;
568;SDS011;269;48.884;9.192;2022-09-16T04:49:54;5.63;;;5.07;;
568;SDS011;269;48.884;9.192;2022-09-16T04:52:21;5.20;;;4.67;;
568;SDS011;269;48.884;9.192;2022-09-16T04:54:48;7.80;;;4.50;;
568;SDS011;269;48.884;9.192;2022-09-16T04:57:15;5.00;;;4.53;;
568;SDS011;269;48.884;9.192;2022-09-16T04:59:42;6.80;;;4.47;;
568;SDS011;269;48.884;9.192;2022-09-16T05:02:11;5.13;;;4.63;;
568;SDS011;269;48.884;9.192;2022-09-16T05:04:38;4.67;;;4.20;;
568;SDS011;269;48.884;9.192;2022-09-16T05:07:05;7.50;;;4.60;;
568;SDS011;269;48.884;9.192;2022-09-16T05:09:33;4.50;;;4.10;;
568;SDS011;269;48.884;9.192;2022-09-16T05:12:01;8.60;;;4.97;;
568;SDS011;269;48.884;9.192;2022-09-16T05:14:29;5.53;;;4.80;;
568;SDS011;269;48.884;9.192;2022-09-16T05:16:56;5.47;;;4.40;;
568;SDS011;269;48.884;9.192;2022-09-16T05:19:24;5.57;;;4.87;;
568;SDS011;269;48.884;9.192;2022-09-16T05:21:51;4.60;;;4.20;;
568;SDS011;269;48.884;9.192;2022-09-16T05:24:18;4.97;;;4.57;;
568;SDS011;269;48.884;9.192;2022-09-16T05:26:45;7.03;;;4.40;;
568;SDS011;269;48.884;9.192;2022-09-16T05:29:13;5.50;;;4.07;;
568;SDS011;269;48.884;9.192;2022-09-16T05:31:43;4.33;;;3.93;;
568;SDS011;269;48.884;9.192;2022-09-16T05:34:12;5.70;;;4.80;;
568;SDS011;269;48.884;9.192;2022-09-16T05:36:42;4.73;;;4.20;;
568;SDS011;269;48.884;9.192;2022-09-16T05:39:12;5.50;;;4.03;;
568;SDS011;269;48.884;9.192;2022-09-16T05:41:40;4.60;;;4.20;;
568;SDS011;269;48.884;9.192;2022-09-16T05:44:07;4.10;;;3.70;;
568;SDS011;269;48.884;9.192;2022-09-16T05:46:34;4.33;;;3.80;;
568;SDS011;269;48.884;9.192;2022-09-16T05:49:01;5.60;;;4.70;;
568;SDS011;269;48.884;9.192;2022-09-16T05:51:28;5.27;;;4.10;;
568;SDS011;269;48.884;9.192;2022-09-16T05:53:57;4.57;;;4.17;;
568;SDS011;269;48.884;9.192;2022-09-16T05:56:25;5.00;;;4.20;;
568;SDS011;269;48.884;9.192;2022-09-16T05:58:55;5.60;;;4.40;;
568;SDS011;269;48.884;9.192;2022-09-16T06:01:25;3.70;;;3.40;;
568;SDS011;269;48.884;9.192;2022-09-16T06:03:54;4.57;;;4.17;;
568;SDS011;269;48.884;9.192;2022-09-16T06:06:22;5.63;;;3.80;;
568;SDS011;269;48.884;9.192;2022-09-16T06:08:50;4.37;;;3.80;;
568;SDS011;269;48.884;9.192;2022-09-16T06:11:19;4.93;;;3.60;;
568;SDS011;269;48.884;9.192;2022-09-16T06:13:51;4.27;;;3.77;;
568;SDS011;269;48.884;9.192;2022-09-16T06:16:20;5.13;;;3.93;;
568;SDS011;269;48.884;9.192;2022-09-16T06:18:48;5.20;;;3.70;;
568;SDS011;269;48.884;9.192;2022-09-16T06:21:15;3.63;;;3.00;;
568;SDS011;269;48.884;9.192;2022-09-16T06:23:42;5.13;;;4.07;;
568;SDS011;269;48.884;9.192;2022-09-16T06:26:11;4.57;;;3.30;;
568;SDS011;269;48.884;9.192;2022-09-16T06:28:41;4.00;;;3.47;;
568;SDS011;269;48.884;9.192;2022-09-16T06:31:09;4.07;;;3.70;;
568;SDS011;269;48.884;9.192;2022-09-16T06:33:37;4.23;;;3.20;;
568;SDS011;269;48.884;9.192;2022-09-16T06:36:06;4.33;;;3.67;;
568;SDS011;269;48.884;9.192;2022-09-16T06:38:34;5.07;;;3.70;;
568;SDS011;269;48.884;9.192;2022-09-16T06:41:02;5.63;;;3.40;;
568;SDS011;269;48.884;9.192;2022-09-16T06:43:30;4.60;;;3.00;;
568;SDS011;269;48.884;9.192;2022-09-16T06:46:00;4.80;;;4.00;;
568;SDS011;269;48.884;9.192;2022-09-16T06:48:30;6.03;;;3.97;;
568;SDS011;269;48.884;9.192;2022-09-16T06:50:59;7.07;;;3.57;;
568;SDS011;269;48.884;9.192;2022-09-16T06:53:27;4.20;;;3.67;;
568;SDS011;269;48.884;9.192;2022-09-16T06:55:54;4.00;;;3.37;;
568;SDS011;269;48.884;9.192;2022-09-16T06:58:26;5.00;;;4.20;;
568;SDS011;269;48.884;9.192;2022-09-16T07:00:54;4.30;;;3.90;;
568;SDS011;269;48.884;9.192;2022-09-16T07:03:22;4.57;;;4.10;;
568;SDS011;269;48.884;9.192;2022-09-16T07:05:56;7.00;;;4.23;;
568;SDS011;269;48.884;9.192;2022-09-16T07:08:24;5.20;;;4.30;;
568;SDS011;269;48.884;9.192;2022-09-16T07:10:56;7.93;;;4.57;;
568;SDS011;269;48.884;9.192;2022-09-16T07:13:24;5.13;;;4.67;;
568;SDS011;269;48.884;9.192;2022-09-16T07:15:51;4.80;;;4.30;;
568;SDS011;269;48.884;9.192;2022-09-16T07:18:19;4.07;;;3.77;;
568;SDS011;269;48.884;9.192;2022-09-16T07:20:47;5.13;;;4.60;;
568;SDS011;269;48.884;9.192;2022-09-16T07:23:14;4.93;;;4.43;;
568;SDS011;269;48.884;9.192;2022-09-16T07:25:42;5.50;;;4.60;;
568;SDS011;269;48.884;9.192;2022-09-16T07:28:08;6.70;;;4.87;;
568;SDS011;269;48.884;9.192;2022-09-16T07:30:35;4.90;;;4.40;;
568;SDS011;269;48.884;9.192;2022-09-16T07:33:03;4.73;;;3.67;;
568;SDS011;269;48.884;9.192;2022-09-16T07:35:29;5.07;;;4.50;;
568;SDS011;269;48.884;9.192;2022-09-16T07:37:58;5.00;;;4.60;;
568;SDS011;269;48.884;9.192;2022-09-16T07:40:26;5.23;;;4.73;;
568;SDS011;269;48.884;9.192;2022-09-16T07:42:53;5.53;;;4.90;;
568;SDS011;269;48.884;9.192;2022-09-16T07:45:20;4.67;;;4.27;;
568;SDS011;269;48.884;9.192;2022-09-16T07:47:47;5.53;;;4.47;;
568;SDS011;269;48.884;9.192;2022-09-16T07:50:15;5.03;;;4.60;;
568;SDS011;269;48.884;9.192;2022-09-16T07:52:42;4.97;;;4.30;;
568;SDS011;269;48.884;9.192;2022-09-16T07:55:10;6.70;;;4.30;;
568;SDS011;269;48.884;9.192;2022-09-16T07:57:40;5.30;;;4.87;;
568;SDS011;269;48.884;9.192;2022-09-16T08:00:07;6.07;;;4.00;;
568;SDS011;269;48.884;9.192;2022-09-16T08:02:35;4.43;;;4.03;;
568;SDS011;269;48.884;9.192;2022-09-16T08:05:02;6.00;;;4.40;;
568;SDS011;269;48.884;9.192;2022-09-16T08:07:30;5.07;;;4.03;;
568;SDS011;269;48.884;9.192;2022-09-16T08:09:57;5.67;;;4.77;;
568;SDS011;269;48.884;9.192;2022-09-16T08:12:25;5.23;;;4.67;;
568;SDS011;269;48.884;9.192;2022-09-16T08:14:56;6.10;;;4.87;;
568;SDS011;269;48.884;9.192;2022-09-16T08:17:24;5.77;;;5.23;;
568;SDS011;269;48.884;9.192;2022-09-16T08:19:51;6.70;;;6.10;;
568;SDS011;269;48.884;9.192;2022-09-16T08:22:19;6.43;;;5.60;;
568;SDS011;269;48.884;9.192;2022-09-16T08:24:47;6.03;;;5.43;;
568;SDS011;269;48.884;9.192;2022-09-16T08:27:14;6.77;;;6.07;;
568;SDS011;269;48.884;9.192;2022-09-16T08:29:43;6.63;;;5.80;;
568;SDS011;269;48.884;9.192;2022-09-16T08:32:10;6.27;;;5.40;;
568;SDS011;269;48.884;9.192;2022-09-16T08:34:37;5.40;;;5.00;;
568;SDS011;269;48.884;9.192;2022-09-16T08:37:04;5.20;;;4.80;;
568;SDS011;269;48.884;9.192;2022-09-16T08:39:32;5.60;;;4.63;;
568;SDS011;269;48.884;9.192;2022-09-16T08:42:13;5.70;;;5.20;;
568;SDS011;269;48.884;9.192;2022-09-16T08:45:01;6.33;;;5.73;;
568;SDS011;269;48.884;9.192;2022-09-16T08:47:48;5.30;;;4.33;;
568;SDS011;269;48.884;9.192;2022-09-16T08:50:23;4.63;;;4.30;;
568;SDS011;269;48.884;9.192;2022-09-16T08:52:54;5.40;;;4.17;;
568;SDS011;269;48.884;9.192;2022-09-16T08:55:25;5.63;;;4.80;;
568;SDS011;269;48.884;9.192;2022-09-16T08:57:56;5.30;;;4.63;;
568;SDS011;269;48.884;9.192;2022-09-16T09:00:29;4.53;;;4.13;;
568;SDS011;269;48.884;9.192;2022-09-16T09:02:57;5.23;;;4.80;;
568;SDS011;269;48.884;9.192;2022-09-16T09:05:42;4.77;;;4.23;;
568;SDS011;269;48.884;9.192;2022-09-16T09:08:21;4.40;;;4.10;;
568;SDS011;269;48.884;9.192;2022-09-16T09:11:01;6.17;;;4.37;;
568;SDS011;269;48.884;9.192;2022-09-16T09:13:43;4.60;;;4.20;;
568;SDS011;269;48.884;9.192;2022-09-16T09:16:30;5.90;;;4.90;;
568;SDS011;269;48.884;9.192;2022-09-16T09:19:12;5.60;;;4.23;;
568;SDS011;269;48.884;9.192;2022-09-16T09:21:52;4.53;;;3.60;;
568;SDS011;269;48.884;9.192;2022-09-16T09:24:29;5.17;;;4.07;;
568;SDS011;269;48.884;9.192;2022-09-16T09:27:07;4.77;;;4.33;;
568;SDS011;269;48.884;9.192;2022-09-16T09:29:49;5.57;;;4.20;;
568;SDS011;269;48.884;9.192;2022-09-16T09:32:31;5.07;;;4.50;;
568;SDS011;269;48.884;9.192;2022-09-16T09:35:12;5.27;;;4.77;;
568;SDS011;269;48.884;9.192;2022-09-16T09:37:51;6.77;;;4.90;;
568;SDS011;269;48.884;9.192;2022-09-16T09:40:33;5.13;;;4.60;;
568;SDS011;269;48.884;9.192;2022-09-16T09:43:05;6.33;;;5.13;;
568;SDS011;269;48.884;9.192;2022-09-16T09:45:39;5.50;;;5.07;;
568;SDS011;269;48.884;9.192;2022-09-16T09:48:13;5.40;;;4.90;;
568;SDS011;269;48.884;9.192;2022-09-16T09:50:44;6.77;;;6.23;;
568;SDS011;269;48.884;9.192;2022-09-16T09:53:13;5.73;;;4.53;;
568;SDS011;269;48.884;9.192;2022-09-16T09:55:46;5.50;;;5.00;;
568;SDS011;269;48.884;9.192;2022-09-16T09:58:16;6.37;;;5.27;;
568;SDS011;269;48.884;9.192;2022-09-16T10:00:48;5.43;;;4.93;;
568;SDS011;269;48.884;9.192;2022-09-16T10:03:18;7.80;;;6.80;;
568;SDS011;269;48.884;9.192;2022-09-16T10:05:45;7.00;;;6.13;;
568;SDS011;269;48.884;9.192;2022-09-16T10:08:15;5.20;;;4.80;;
568;SDS011;269;48.884;9.192;2022-09-16T10:10:48;6.13;;;5.00;;
568;SDS011;269;48.884;9.192;2022-09-16T10:13:17;5.27;;;4.87;;
568;SDS011;269;48.884;9.192;2022-09-16T10:15:46;4.63;;;4.23;;
568;SDS011;269;48.884;9.192;2022-09-16T10:18:20;6.33;;;4.83;;
568;SDS011;269;48.884;9.192;2022-09-16T10:20:54;4.60;;;4.27;;
568;SDS011;269;48.884;9.192;2022-09-16T10:23:28;5.30;;;4.80;;
568;SDS011;269;48.884;9.192;2022-09-16T10:26:05;4.93;;;4.43;;
568;SDS011;269;48.884;9.192;2022-09-16T10:28:51;4.87;;;4.47;;
568;SDS011;269;48.884;9.192;2022-09-16T10:31:24;5.67;;;5.17;;
568;SDS011;269;48.884;9.192;2022-09-16T10:33:55;4.80;;;4.30;;
568;SDS011;269;48.884;9.192;2022-09-16T10:36:24;3.50;;;3.10;;
568;SDS011;269;48.884;9.192;2022-09-16T10:38:58;5.10;;;4.10;;
568;SDS011;269;48.884;9.192;2022-09-16T10:41:27;4.77;;;3.47;;
568;SDS011;269;48.884;9.192;2022-09-16T10:43:57;4.07;;;3.13;;
568;SDS011;269;48.884;9.192;2022-09-16T10:46:27;4.13;;;3.73;;
568;SDS011;269;48.884;9.192;2022-09-16T10:48:57;4.83;;;3.43;;
568;SDS011;269;48.884;9.192;2022-09-16T10:51:28;5.50;;;3.90;;
568;SDS011;269;48.884;9.192;2022-09-16T10:53:58;7.03;;;4.67;;
568;SDS011;269;48.884;9.192;2022-09-16T10:56:26;4.90;;;4.40;;
568;SDS011;269;48.884;9.192;2022-09-16T10:59:01;5.23;;;4.70;;
568;SDS011;269;48.884;9.192;2022-09-16T11:01:32;6.70;;;4.20;;
568;SDS011;269;48.884;9.192;2022-09-16T11:04:19;4.27;;;3.97;;
568;SDS011;269;48.884;9.192;2022-09-16T11:07:04;4.57;;;4.10;;
568;SDS011;269;48.884;9.192;2022-09-16T11:09:43;4.70;;;4.30;;
568;SDS011;269;48.884;9.192;2022-09-16T11:12:35;5.07;;;4.67;;
568;SDS011;269;48.884;9.192;2022-09-16T11:15:22;7.33;;;4.60;;
568;SDS011;269;48.884;9.192;2022-09-16T11:18:03;6.27;;;4.60;;
568;SDS011;269;48.884;9.192;2022-09-16T11:20:43;4.80;;;4.07;;
568;SDS011;269;48.884;9.192;2022-09-16T11:23:22;4.40;;;3.93;;
568;SDS011;269;48.884;9.192;2022-09-16T11:26:03;4.50;;;4.10;;
568;SDS011;269;48.884;9.192;2022-09-16T11:31:29;4.80;;;3.63;;
568;SDS011;269;48.884;9.192;2022-09-16T11:34:03;3.93;;;3.60;;
568;SDS011;269;48.884;9.192;2022-09-16T11:36:49;4.30;;;3.10;;
568;SDS011;269;48.884;9.192;2022-09-16T11:42:12;4.00;;;3.47;;
568;SDS011;269;48.884;9.192;2022-09-16T11:44:45;2.93;;;2.73;;
568;SDS011;269;48.884;9.192;2022-09-16T11:47:22;3.70;;;3.10;;
568;SDS011;269;48.884;9.192;2022-09-16T11:50:09;3.63;;;3.33;;
568;SDS011;269;48.884;9.192;2022-09-16T11:52:58;5.67;;;3.37;;
568;SDS011;269;48.884;9.192;2022-09-16T11:55:37;4.47;;;3.23;;
568;SDS011;269;48.884;9.192;2022-09-16T11:58:24;5.00;;;3.20;;
568;SDS011;269;48.884;9.192;2022-09-16T12:01:10;4.40;;;2.57;;
568;SDS011;269;48.884;9.192;2022-09-16T12:03:45;4.13;;;2.80;;
568;SDS011;269;48.884;9.192;2022-09-16T12:06:18;3.43;;;2.33;;
568;SDS011;269;48.884;9.192;2022-09-16T12:08:53;4.77;;;2.10;;
568;SDS011;269;48.884;9.192;2022-09-16T12:11:25;1.93;;;1.73;;
568;SDS011;269;48.884;9.192;2022-09-16T12:13:59;3.13;;;2.13;;
568;SDS011;269;48.884;9.192;2022-09-16T12:16:33;2.87;;;1.53;;
568;SDS011;269;48.884;9.192;2022-09-16T12:19:05;3.80;;;1.53;;
568;SDS011;269;48.884;9.192;2022-09-16T12:21:39;2.77;;;2.10;;
568;SDS011;269;48.884;9.192;2022-09-16T12:24:13;7.40;;;2.23;;
568;SDS011;269;48.884;9.192;2022-09-16T12:26:47;3.47;;;1.70;;
568;SDS011;269;48.884;9.192;2022-09-16T12:29:18;1.97;;;1.80;;
568;SDS011;269;48.884;9.192;2022-09-16T12:31:49;3.80;;;1.83;;
568;SDS011;269;48.884;9.192;2022-09-16T12:34:22;4.57;;;2.40;;
568;SDS011;269;48.884;9.192;2022-09-16T12:36:54;4.47;;;1.83;;
568;SDS011;269;48.884;9.192;2022-09-16T12:39:27;2.27;;;2.00;;
568;SDS011;269;48.884;9.192;2022-09-16T12:42:04;3.27;;;1.70;;
568;SDS011;269;48.884;9.192;2022-09-16T12:44:53;2.43;;;1.80;;
568;SDS011;269;48.884;9.192;2022-09-16T12:47:53;2.97;;;1.70;;
568;SDS011;269;48.884;9.192;2022-09-16T12:50:44;2.70;;;1.50;;
568;SDS011;269;48.884;9.192;2022-09-16T12:53:34;3.70;;;1.93;;
568;SDS011;269;48.884;9.192;2022-09-16T12:56:17;2.10;;;1.50;;
568;SDS011;269;48.884;9.192;2022-09-16T12:59:04;2.40;;;1.60;;
568;SDS011;269;48.884;9.192;2022-09-16T13:01:42;3.47;;;1.97;;
568;SDS011;269;48.884;9.192;2022-09-16T13:04:13;3.10;;;1.40;;
568;SDS011;269;48.884;9.192;2022-09-16T13:06:44;2.90;;;1.40;;
568;SDS011;269;48.884;9.192;2022-09-16T13:09:16;1.47;;;1.30;;
568;SDS011;269;48.884;9.192;2022-09-16T13:11:52;2.33;;;1.40;;
568;SDS011;269;48.884;9.192;2022-09-16T13:14:23;3.90;;;1.73;;
568;SDS011;269;48.884;9.192;2022-09-16T13:16:55;2.50;;;1.40;;
568;SDS011;269;48.884;9.192;2022-09-16T13:19:30;5.17;;;1.70;;
568;SDS011;269;48.884;9.192;2022-09-16T13:22:08;2.17;;;1.83;;
568;SDS011;269;48.884;9.192;2022-09-16T13:24:45;2.10;;;1.90;;
568;SDS011;269;48.884;9.192;2022-09-16T13:27:27;3.03;;;1.60;;
568;SDS011;269;48.884;9.192;2022-09-16T13:30:24;2.13;;;1.63;;
568;SDS011;269;48.884;9.192;2022-09-16T13:32:59;3.07;;;1.93;;
568;SDS011;269;48.884;9.192;2022-09-16T13:35:41;2.33;;;1.80;;
568;SDS011;269;48.884;9.192;2022-09-16T13:38:19;2.87;;;2.13;;
568;SDS011;269;48.884;9.192;2022-09-16T13:41:00;3.43;;;1.80;;
568;SDS011;269;48.884;9.192;2022-09-16T13:43:31;2.10;;;1.80;;
568;SDS011;269;48.884;9.192;2022-09-16T13:46:01;2.93;;;2.03;;
568;SDS011;269;48.884;9.192;2022-09-16T13:48:33;2.70;;;2.00;;
568;SDS011;269;48.884;9.192;2022-09-16T13:51:15;3.27;;;2.00;;
568;SDS011;269;48.884;9.192;2022-09-16T13:53:44;4.53;;;2.20;;
568;SDS011;269;48.884;9.192;2022-09-16T13:56:18;3.33;;;1.90;;
568;SDS011;269;48.884;9.192;2022-09-16T13:58:56;2.73;;;2.10;;
568;SDS011;269;48.884;9.192;2022-09-16T14:01:31;2.43;;;2.23;;
568;SDS011;269;48.884;9.192;2022-09-16T14:04:05;2.20;;;1.90;;
568;SDS011;269;48.884;9.192;2022-09-16T14:06:43;2.43;;;1.70;;
568;SDS011;269;48.884;9.192;2022-09-16T14:09:23;2.80;;;2.00;;
568;SDS011;269;48.884;9.192;2022-09-16T14:11:57;2.87;;;1.93;;
568;SDS011;269;48.884;9.192;2022-09-16T14:14:36;2.70;;;1.80;;
568;SDS011;269;48.884;9.192;2022-09-16T14:17:04;1.53;;;1.33;;
568;SDS011;269;48.884;9.192;2022-09-16T14:19:42;2.70;;;1.70;;
568;SDS011;269;48.884;9.192;2022-09-16T14:22:13;2.53;;;1.60;;
568;SDS011;269;48.884;9.192;2022-09-16T14:24:42;2.40;;;1.60;;
568;SDS011;269;48.884;9.192;2022-09-16T14:27:17;2.50;;;1.60;;
568;SDS011;269;48.884;9.192;2022-09-16T14:29:57;2.00;;;1.80;;
568;SDS011;269;48.884;9.192;2022-09-16T14:32:26;2.47;;;1.80;;
568;SDS011;269;48.884;9.192;2022-09-16T14:34:56;2.43;;;1.63;;
568;SDS011;269;48.884;9.192;2022-09-16T14:37:26;2.03;;;1.40;;
568;SDS011;269;48.884;9.192;2022-09-16T14:39:55;5.13;;;1.50;;
568;SDS011;269;48.884;9.192;2022-09-16T14:42:29;2.23;;;1.57;;
568;SDS011;269;48.884;9.192;2022-09-16T14:44:58;5.23;;;1.83;;
568;SDS011;269;48.884;9.192;2022-09-16T14:47:26;2.40;;;1.50;;
568;SDS011;269;48.884;9.192;2022-09-16T14:49:56;2.67;;;1.93;;
568;SDS011;269;48.884;9.192;2022-09-16T14:52:30;3.93;;;2.23;;
568;SDS011;269;48.884;9.192;2022-09-16T14:54:58;1.67;;;1.57;;
568;SDS011;269;48.884;9.192;2022-09-16T14:57:26;2.33;;;1.47;;
568;SDS011;269;48.884;9.192;2022-09-16T14:59:55;3.00;;;1.87;;
568;SDS011;269;48.884;9.192;2022-09-16T15:02:27;3.57;;;1.93;;
568;SDS011;269;48.884;9.192;2022-09-16T15:04:58;3.60;;;1.93;;
568;SDS011;269;48.884;9.192;2022-09-16T15:07:34;3.83;;;1.90;;
568;SDS011;269;48.884;9.192;2022-09-16T15:10:05;2.10;;;1.90;;
568;SDS011;269;48.884;9.192;2022-09-16T15:12:36;2.70;;;2.03;;
568;SDS011;269;48.884;9.192;2022-09-16T15:15:16;2.70;;;2.03;;
568;SDS011;269;48.884;9.192;2022-09-16T15:17:50;2.20;;;2.00;;
568;SDS011;269;48.884;9.192;2022-09-16T15:20:19;7.20;;;2.40;;
568;SDS011;269;48.884;9.192;2022-09-16T15:22:48;4.10;;;2.33;;
568;SDS011;269;48.884;9.192;2022-09-16T15:25:18;2.63;;;2.00;;
568;SDS011;269;48.884;9.192;2022-09-16T15:27:47;3.07;;;2.23;;
568;SDS011;269;48.884;9.192;2022-09-16T15:30:21;3.60;;;2.47;;
568;SDS011;269;48.884;9.192;2022-09-16T15:32:50;3.63;;;2.10;;
568;SDS011;269;48.884;9.192;2022-09-16T15:35:21;2.50;;;1.83;;
568;SDS011;269;48.884;9.192;2022-09-16T15:37:49;5.43;;;2.47;;
568;SDS011;269;48.884;9.192;2022-09-16T15:43:01;2.63;;;1.93;;
568;SDS011;269;48.884;9.192;2022-09-16T15:45:36;2.03;;;1.80;;
568;SDS011;269;48.884;9.192;2022-09-16T15:48:04;3.13;;;2.07;;
568;SDS011;269;48.884;9.192;2022-09-16T15:50:37;5.87;;;1.90;;
568;SDS011;269;48.884;9.192;2022-09-16T15:53:08;3.47;;;1.73;;
568;SDS011;269;48.884;9.192;2022-09-16T15:55:39;3.43;;;1.90;;
568;SDS011;269;48.884;9.192;2022-09-16T15:58:10;3.80;;;1.80;;
568;SDS011;269;48.884;9.192;2022-09-16T16:00:59;2.30;;;1.73;;
568;SDS011;269;48.884;9.192;2022-09-16T16:03:30;3.33;;;1.60;;
568;SDS011;269;48.884;9.192;2022-09-16T16:06:03;2.53;;;2.00;;
568;SDS011;269;48.884;9.192;2022-09-16T16:08:38;2.53;;;1.70;;
568;SDS011;269;48.884;9.192;2022-09-16T16:11:08;2.57;;;1.67;;
568;SDS011;269;48.884;9.192;2022-09-16T16:13:37;2.93;;;1.50;;
568;SDS011;269;48.884;9.192;2022-09-16T16:16:05;2.63;;;1.70;;
568;SDS011;269;48.884;9.192;2022-09-16T16:18:33;2.07;;;1.63;;
568;SDS011;269;48.884;9.192;2022-09-16T16:21:03;2.70;;;1.63;;
568;SDS011;269;48.884;9.192;2022-09-16T16:23:32;2.13;;;1.57;;
568;SDS011;269;48.884;9.192;2022-09-16T16:26:01;2.23;;;1.40;;
568;SDS011;269;48.884;9.192;2022-09-16T16:28:28;2.17;;;1.60;;
568;SDS011;269;48.884;9.192;2022-09-16T16:31:07;2.30;;;1.50;;
568;SDS011;269;48.884;9.192;2022-09-16T16:33:35;2.30;;;1.40;;
568;SDS011;269;48.884;9.192;2022-09-16T16:36:02;4.00;;;2.73;;